sensor_id;sensor_type;location;lat;lon;timestamp;P1;durP1;ratioP1;P2;durP2;ratioP2
76712;SDS011;65640;43.154;25.658;2023-03-09T00:01:27;32.75;;;17.83;;
76712;SDS011;65640;43.154;25.658;2023-03-09T00:03:55;31.88;;;17.38;;
76712;SDS011;65640;43.154;25.658;2023-03-09T00:06:22;32.80;;;16.90;;
76712;SDS011;65640;43.154;25.658;2023-03-09T00:08:48;35.08;;;17.20;;
76712;SDS011;65640;43.154;25.658;2023-03-09T00:11:14;30.70;;;15.95;;
76712;SDS011;65640;43.154;25.658;2023-03-09T00:13:41;27.85;;;15.88;;
76712;SDS011;65640;43.154;25.658;2023-03-09T00:16:11;29.67;;;15.00;;
76712;SDS011;65640;43.154;25.658;2023-03-09T00:18:39;22.25;;;14.35;;
76712;SDS011;65640;43.154;25.658;2023-03-09T00:21:05;30.85;;;15.77;;
76712;SDS011;65640;43.154;25.658;2023-03-09T00:23:31;27.92;;;15.73;;
76712;SDS011;65640;43.154;25.658;2023-03-09T00:26:01;28.10;;;15.52;;
76712;SDS011;65640;43.154;25.658;2023-03-09T00:28:30;26.73;;;16.13;;
76712;SDS011;65640;43.154;25.658;2023-03-09T00:31:06;26.50;;;15.15;;
76712;SDS011;65640;43.154;25.658;2023-03-09T00:33:32;32.90;;;16.38;;
76712;SDS011;65640;43.154;25.658;2023-03-09T00:35:58;28.10;;;15.07;;
76712;SDS011;65640;43.154;25.658;2023-03-09T00:38:23;29.25;;;16.02;;
76712;SDS011;65640;43.154;25.658;2023-03-09T00:40:50;25.45;;;14.93;;
76712;SDS011;65640;43.154;25.658;2023-03-09T00:43:15;27.55;;;16.30;;
76712;SDS011;65640;43.154;25.658;2023-03-09T00:45:41;24.08;;;15.07;;
76712;SDS011;65640;43.154;25.658;2023-03-09T00:48:06;25.98;;;15.38;;
76712;SDS011;65640;43.154;25.658;2023-03-09T00:50:32;30.63;;;14.57;;
76712;SDS011;65640;43.154;25.658;2023-03-09T00:52:57;23.10;;;15.20;;
76712;SDS011;65640;43.154;25.658;2023-03-09T00:55:22;22.85;;;14.60;;
76712;SDS011;65640;43.154;25.658;2023-03-09T00:57:48;28.58;;;15.70;;
76712;SDS011;65640;43.154;25.658;2023-03-09T01:00:13;27.40;;;15.88;;
76712;SDS011;65640;43.154;25.658;2023-03-09T01:02:39;24.70;;;14.45;;
76712;SDS011;65640;43.154;25.658;2023-03-09T01:05:04;25.05;;;14.88;;
76712;SDS011;65640;43.154;25.658;2023-03-09T01:07:30;26.10;;;15.57;;
76712;SDS011;65640;43.154;25.658;2023-03-09T01:09:57;19.20;;;11.23;;
76712;SDS011;65640;43.154;25.658;2023-03-09T01:12:23;22.10;;;12.48;;
76712;SDS011;65640;43.154;25.658;2023-03-09T01:14:49;23.48;;;13.82;;
76712;SDS011;65640;43.154;25.658;2023-03-09T01:17:19;22.85;;;13.15;;
76712;SDS011;65640;43.154;25.658;2023-03-09T01:19:44;17.95;;;11.73;;
76712;SDS011;65640;43.154;25.658;2023-03-09T01:22:10;24.33;;;15.15;;
76712;SDS011;65640;43.154;25.658;2023-03-09T01:24:35;28.30;;;14.57;;
76712;SDS011;65640;43.154;25.658;2023-03-09T01:27:01;32.10;;;14.80;;
76712;SDS011;65640;43.154;25.658;2023-03-09T01:29:26;24.23;;;14.32;;
76712;SDS011;65640;43.154;25.658;2023-03-09T01:31:52;18.17;;;11.43;;
76712;SDS011;65640;43.154;25.658;2023-03-09T01:34:17;18.10;;;11.43;;
76712;SDS011;65640;43.154;25.658;2023-03-09T01:36:43;16.85;;;11.60;;
76712;SDS011;65640;43.154;25.658;2023-03-09T01:39:11;11.15;;;7.97;;
76712;SDS011;65640;43.154;25.658;2023-03-09T01:41:37;12.57;;;7.45;;
76712;SDS011;65640;43.154;25.658;2023-03-09T01:44:02;20.83;;;12.95;;
76712;SDS011;65640;43.154;25.658;2023-03-09T01:49:01;18.38;;;11.55;;
76712;SDS011;65640;43.154;25.658;2023-03-09T01:51:42;25.58;;;13.15;;
76712;SDS011;65640;43.154;25.658;2023-03-09T01:54:21;17.88;;;11.55;;
76712;SDS011;65640;43.154;25.658;2023-03-09T01:56:52;20.80;;;13.23;;
76712;SDS011;65640;43.154;25.658;2023-03-09T01:59:21;19.05;;;11.75;;
76712;SDS011;65640;43.154;25.658;2023-03-09T02:01:49;17.30;;;11.25;;
76712;SDS011;65640;43.154;25.658;2023-03-09T02:04:17;16.05;;;9.60;;
76712;SDS011;65640;43.154;25.658;2023-03-09T02:06:47;12.48;;;9.13;;
76712;SDS011;65640;43.154;25.658;2023-03-09T02:09:23;11.80;;;7.93;;
76712;SDS011;65640;43.154;25.658;2023-03-09T02:11:57;9.57;;;7.55;;
76712;SDS011;65640;43.154;25.658;2023-03-09T02:14:23;11.02;;;6.85;;
76712;SDS011;65640;43.154;25.658;2023-03-09T02:16:50;8.85;;;7.80;;
76712;SDS011;65640;43.154;25.658;2023-03-09T02:19:25;9.05;;;8.05;;
76712;SDS011;65640;43.154;25.658;2023-03-09T02:22:11;13.18;;;7.72;;
76712;SDS011;65640;43.154;25.658;2023-03-09T02:27:22;11.57;;;8.77;;
76712;SDS011;65640;43.154;25.658;2023-03-09T02:29:49;13.80;;;9.02;;
76712;SDS011;65640;43.154;25.658;2023-03-09T02:32:16;9.20;;;7.47;;
76712;SDS011;65640;43.154;25.658;2023-03-09T02:34:42;11.20;;;7.13;;
76712;SDS011;65640;43.154;25.658;2023-03-09T02:40:14;13.55;;;9.07;;
76712;SDS011;65640;43.154;25.658;2023-03-09T02:42:43;12.98;;;7.97;;
76712;SDS011;65640;43.154;25.658;2023-03-09T02:45:10;10.13;;;8.10;;
76712;SDS011;65640;43.154;25.658;2023-03-09T02:47:38;17.05;;;9.25;;
76712;SDS011;65640;43.154;25.658;2023-03-09T02:50:04;11.65;;;8.70;;
76712;SDS011;65640;43.154;25.658;2023-03-09T02:52:34;12.93;;;10.15;;
76712;SDS011;65640;43.154;25.658;2023-03-09T02:55:00;18.50;;;9.90;;
76712;SDS011;65640;43.154;25.658;2023-03-09T02:57:26;17.08;;;10.40;;
76712;SDS011;65640;43.154;25.658;2023-03-09T02:59:51;16.00;;;10.88;;
76712;SDS011;65640;43.154;25.658;2023-03-09T03:02:17;16.65;;;11.75;;
76712;SDS011;65640;43.154;25.658;2023-03-09T03:04:42;19.70;;;11.63;;
76712;SDS011;65640;43.154;25.658;2023-03-09T03:07:08;11.45;;;9.45;;
76712;SDS011;65640;43.154;25.658;2023-03-09T03:09:33;22.25;;;9.18;;
76712;SDS011;65640;43.154;25.658;2023-03-09T03:11:59;14.25;;;7.60;;
76712;SDS011;65640;43.154;25.658;2023-03-09T03:14:24;15.05;;;7.47;;
76712;SDS011;65640;43.154;25.658;2023-03-09T03:16:49;10.80;;;8.13;;
76712;SDS011;65640;43.154;25.658;2023-03-09T03:19:15;11.38;;;8.05;;
76712;SDS011;65640;43.154;25.658;2023-03-09T03:21:40;13.27;;;7.43;;
76712;SDS011;65640;43.154;25.658;2023-03-09T03:24:06;18.42;;;8.18;;
76712;SDS011;65640;43.154;25.658;2023-03-09T03:26:31;14.82;;;8.27;;
76712;SDS011;65640;43.154;25.658;2023-03-09T03:28:57;11.85;;;7.70;;
76712;SDS011;65640;43.154;25.658;2023-03-09T03:31:22;9.73;;;7.03;;
76712;SDS011;65640;43.154;25.658;2023-03-09T03:33:48;10.25;;;6.63;;
76712;SDS011;65640;43.154;25.658;2023-03-09T03:36:13;14.07;;;6.88;;
76712;SDS011;65640;43.154;25.658;2023-03-09T03:38:38;16.88;;;7.60;;
76712;SDS011;65640;43.154;25.658;2023-03-09T03:41:05;7.95;;;6.68;;
76712;SDS011;65640;43.154;25.658;2023-03-09T03:43:31;7.57;;;5.75;;
76712;SDS011;65640;43.154;25.658;2023-03-09T03:45:56;9.75;;;5.97;;
76712;SDS011;65640;43.154;25.658;2023-03-09T03:48:22;8.25;;;5.80;;
76712;SDS011;65640;43.154;25.658;2023-03-09T03:50:47;8.85;;;5.82;;
76712;SDS011;65640;43.154;25.658;2023-03-09T03:53:12;6.47;;;5.20;;
76712;SDS011;65640;43.154;25.658;2023-03-09T03:55:38;5.80;;;4.93;;
76712;SDS011;65640;43.154;25.658;2023-03-09T03:58:03;7.00;;;5.53;;
76712;SDS011;65640;43.154;25.658;2023-03-09T04:00:29;5.40;;;4.90;;
76712;SDS011;65640;43.154;25.658;2023-03-09T04:02:54;9.43;;;4.78;;
76712;SDS011;65640;43.154;25.658;2023-03-09T04:05:20;5.53;;;5.03;;
76712;SDS011;65640;43.154;25.658;2023-03-09T04:07:45;7.30;;;5.00;;
76712;SDS011;65640;43.154;25.658;2023-03-09T04:10:12;5.30;;;4.88;;
76712;SDS011;65640;43.154;25.658;2023-03-09T04:12:38;11.13;;;5.15;;
76712;SDS011;65640;43.154;25.658;2023-03-09T04:15:03;11.43;;;4.95;;
76712;SDS011;65640;43.154;25.658;2023-03-09T04:17:30;7.75;;;5.13;;
76712;SDS011;65640;43.154;25.658;2023-03-09T04:19:56;5.80;;;5.30;;
76712;SDS011;65640;43.154;25.658;2023-03-09T04:22:21;7.30;;;5.20;;
76712;SDS011;65640;43.154;25.658;2023-03-09T04:24:49;7.57;;;5.03;;
76712;SDS011;65640;43.154;25.658;2023-03-09T04:27:15;6.32;;;4.65;;
76712;SDS011;65640;43.154;25.658;2023-03-09T04:29:41;10.35;;;6.15;;
76712;SDS011;65640;43.154;25.658;2023-03-09T04:32:06;9.65;;;6.88;;
76712;SDS011;65640;43.154;25.658;2023-03-09T04:34:32;6.40;;;5.43;;
76712;SDS011;65640;43.154;25.658;2023-03-09T04:36:58;8.93;;;4.90;;
76712;SDS011;65640;43.154;25.658;2023-03-09T04:39:23;7.55;;;4.88;;
76712;SDS011;65640;43.154;25.658;2023-03-09T04:41:49;17.98;;;6.03;;
76712;SDS011;65640;43.154;25.658;2023-03-09T04:44:14;6.95;;;5.75;;
76712;SDS011;65640;43.154;25.658;2023-03-09T04:46:40;9.50;;;4.65;;
76712;SDS011;65640;43.154;25.658;2023-03-09T04:49:05;7.28;;;4.47;;
76712;SDS011;65640;43.154;25.658;2023-03-09T04:51:31;7.03;;;4.95;;
76712;SDS011;65640;43.154;25.658;2023-03-09T04:53:56;8.45;;;5.45;;
76712;SDS011;65640;43.154;25.658;2023-03-09T04:56:22;8.82;;;4.72;;
76712;SDS011;65640;43.154;25.658;2023-03-09T04:58:49;6.07;;;4.80;;
76712;SDS011;65640;43.154;25.658;2023-03-09T05:01:14;5.40;;;4.30;;
76712;SDS011;65640;43.154;25.658;2023-03-09T05:03:40;7.90;;;4.50;;
76712;SDS011;65640;43.154;25.658;2023-03-09T05:06:05;6.32;;;4.20;;
76712;SDS011;65640;43.154;25.658;2023-03-09T05:08:31;8.05;;;3.95;;
76712;SDS011;65640;43.154;25.658;2023-03-09T05:10:57;7.28;;;3.88;;
76712;SDS011;65640;43.154;25.658;2023-03-09T05:13:22;5.05;;;4.00;;
76712;SDS011;65640;43.154;25.658;2023-03-09T05:15:48;11.00;;;4.60;;
76712;SDS011;65640;43.154;25.658;2023-03-09T05:18:13;19.65;;;10.48;;
76712;SDS011;65640;43.154;25.658;2023-03-09T05:20:39;24.55;;;13.70;;
76712;SDS011;65640;43.154;25.658;2023-03-09T05:23:04;10.10;;;6.32;;
76712;SDS011;65640;43.154;25.658;2023-03-09T05:25:30;7.90;;;5.07;;
76712;SDS011;65640;43.154;25.658;2023-03-09T05:27:56;6.05;;;5.25;;
76712;SDS011;65640;43.154;25.658;2023-03-09T05:30:21;5.22;;;4.60;;
76712;SDS011;65640;43.154;25.658;2023-03-09T05:32:47;5.72;;;5.13;;
76712;SDS011;65640;43.154;25.658;2023-03-09T05:35:15;6.35;;;5.32;;
76712;SDS011;65640;43.154;25.658;2023-03-09T05:37:44;9.82;;;4.57;;
76712;SDS011;65640;43.154;25.658;2023-03-09T05:40:10;7.15;;;4.88;;
76712;SDS011;65640;43.154;25.658;2023-03-09T05:42:37;13.65;;;7.70;;
76712;SDS011;65640;43.154;25.658;2023-03-09T05:45:02;25.85;;;15.23;;
76712;SDS011;65640;43.154;25.658;2023-03-09T05:47:29;25.02;;;13.10;;
76712;SDS011;65640;43.154;25.658;2023-03-09T05:49:55;20.80;;;11.23;;
76712;SDS011;65640;43.154;25.658;2023-03-09T05:52:21;16.58;;;8.30;;
76712;SDS011;65640;43.154;25.658;2023-03-09T05:54:46;11.68;;;7.10;;
76712;SDS011;65640;43.154;25.658;2023-03-09T05:57:12;9.65;;;5.55;;
76712;SDS011;65640;43.154;25.658;2023-03-09T05:59:38;26.10;;;7.53;;
76712;SDS011;65640;43.154;25.658;2023-03-09T06:02:04;9.93;;;4.60;;
76712;SDS011;65640;43.154;25.658;2023-03-09T06:04:29;6.72;;;4.60;;
76712;SDS011;65640;43.154;25.658;2023-03-09T06:06:55;8.48;;;4.88;;
76712;SDS011;65640;43.154;25.658;2023-03-09T06:09:21;6.35;;;4.93;;
76712;SDS011;65640;43.154;25.658;2023-03-09T06:11:46;11.68;;;8.05;;
76712;SDS011;65640;43.154;25.658;2023-03-09T06:14:12;9.30;;;7.82;;
76712;SDS011;65640;43.154;25.658;2023-03-09T06:16:37;7.72;;;5.22;;
76712;SDS011;65640;43.154;25.658;2023-03-09T06:19:03;8.65;;;5.88;;
76712;SDS011;65640;43.154;25.658;2023-03-09T06:21:28;10.98;;;5.45;;
76712;SDS011;65640;43.154;25.658;2023-03-09T06:23:54;8.05;;;5.70;;
76712;SDS011;65640;43.154;25.658;2023-03-09T06:26:20;9.82;;;4.18;;
76712;SDS011;65640;43.154;25.658;2023-03-09T06:28:46;6.57;;;4.10;;
76712;SDS011;65640;43.154;25.658;2023-03-09T06:31:12;4.68;;;3.97;;
76712;SDS011;65640;43.154;25.658;2023-03-09T06:33:39;5.70;;;4.20;;
76712;SDS011;65640;43.154;25.658;2023-03-09T06:36:06;8.68;;;4.65;;
76712;SDS011;65640;43.154;25.658;2023-03-09T06:43:23;8.65;;;4.75;;
76712;SDS011;65640;43.154;25.658;2023-03-09T06:45:48;10.93;;;4.68;;
76712;SDS011;65640;43.154;25.658;2023-03-09T06:48:14;12.57;;;5.00;;
76712;SDS011;65640;43.154;25.658;2023-03-09T06:50:40;11.30;;;4.60;;
76712;SDS011;65640;43.154;25.658;2023-03-09T06:53:05;6.93;;;4.85;;
76712;SDS011;65640;43.154;25.658;2023-03-09T06:55:30;8.38;;;4.60;;
76712;SDS011;65640;43.154;25.658;2023-03-09T06:57:56;11.20;;;4.15;;
76712;SDS011;65640;43.154;25.658;2023-03-09T07:00:22;8.00;;;3.55;;
76712;SDS011;65640;43.154;25.658;2023-03-09T07:02:47;5.20;;;3.80;;
76712;SDS011;65640;43.154;25.658;2023-03-09T07:05:13;12.30;;;4.68;;
76712;SDS011;65640;43.154;25.658;2023-03-09T07:07:38;6.18;;;4.07;;
76712;SDS011;65640;43.154;25.658;2023-03-09T07:10:06;5.70;;;3.90;;
76712;SDS011;65640;43.154;25.658;2023-03-09T07:12:32;5.43;;;3.50;;
76712;SDS011;65640;43.154;25.658;2023-03-09T07:14:58;3.75;;;3.08;;
76712;SDS011;65640;43.154;25.658;2023-03-09T07:17:23;3.13;;;2.90;;
76712;SDS011;65640;43.154;25.658;2023-03-09T07:19:49;2.85;;;2.65;;
76712;SDS011;65640;43.154;25.658;2023-03-09T07:22:17;3.30;;;3.00;;
76712;SDS011;65640;43.154;25.658;2023-03-09T07:24:42;4.68;;;3.45;;
76712;SDS011;65640;43.154;25.658;2023-03-09T07:27:08;4.07;;;3.75;;
76712;SDS011;65640;43.154;25.658;2023-03-09T07:29:33;5.78;;;3.95;;
76712;SDS011;65640;43.154;25.658;2023-03-09T07:32:00;4.70;;;3.50;;
76712;SDS011;65640;43.154;25.658;2023-03-09T07:34:27;4.97;;;3.40;;
76712;SDS011;65640;43.154;25.658;2023-03-09T07:36:52;3.88;;;3.42;;
76712;SDS011;65640;43.154;25.658;2023-03-09T07:39:18;3.22;;;2.92;;
76712;SDS011;65640;43.154;25.658;2023-03-09T07:41:43;3.63;;;3.33;;
76712;SDS011;65640;43.154;25.658;2023-03-09T07:44:09;3.22;;;2.80;;
76712;SDS011;65640;43.154;25.658;2023-03-09T07:46:34;5.38;;;3.22;;
76712;SDS011;65640;43.154;25.658;2023-03-09T07:49:00;4.68;;;3.17;;
76712;SDS011;65640;43.154;25.658;2023-03-09T07:51:25;4.22;;;2.85;;
76712;SDS011;65640;43.154;25.658;2023-03-09T07:53:51;4.30;;;3.03;;
76712;SDS011;65640;43.154;25.658;2023-03-09T07:56:16;3.22;;;3.00;;
76712;SDS011;65640;43.154;25.658;2023-03-09T07:58:42;4.18;;;2.72;;
76712;SDS011;65640;43.154;25.658;2023-03-09T08:01:12;3.15;;;2.58;;
76712;SDS011;65640;43.154;25.658;2023-03-09T08:03:39;4.57;;;2.30;;
76712;SDS011;65640;43.154;25.658;2023-03-09T08:06:04;4.20;;;2.22;;
76712;SDS011;65640;43.154;25.658;2023-03-09T08:08:31;6.47;;;2.80;;
76712;SDS011;65640;43.154;25.658;2023-03-09T08:10:57;6.30;;;2.90;;
76712;SDS011;65640;43.154;25.658;2023-03-09T08:13:22;7.97;;;2.63;;
76712;SDS011;65640;43.154;25.658;2023-03-09T08:15:49;2.58;;;2.38;;
76712;SDS011;65640;43.154;25.658;2023-03-09T08:18:16;6.43;;;2.33;;
76712;SDS011;65640;43.154;25.658;2023-03-09T08:20:44;6.00;;;2.83;;
76712;SDS011;65640;43.154;25.658;2023-03-09T08:23:10;5.90;;;2.63;;
76712;SDS011;65640;43.154;25.658;2023-03-09T08:25:36;3.10;;;2.70;;
76712;SDS011;65640;43.154;25.658;2023-03-09T08:28:03;5.32;;;2.00;;
76712;SDS011;65640;43.154;25.658;2023-03-09T08:30:29;11.85;;;2.45;;
76712;SDS011;65640;43.154;25.658;2023-03-09T08:32:56;2.35;;;2.15;;
76712;SDS011;65640;43.154;25.658;2023-03-09T08:35:23;16.15;;;2.65;;
76712;SDS011;65640;43.154;25.658;2023-03-09T08:37:53;3.03;;;2.50;;
76712;SDS011;65640;43.154;25.658;2023-03-09T08:40:18;2.53;;;1.80;;
76712;SDS011;65640;43.154;25.658;2023-03-09T08:42:44;3.38;;;2.13;;
76712;SDS011;65640;43.154;25.658;2023-03-09T08:45:09;4.03;;;1.77;;
76712;SDS011;65640;43.154;25.658;2023-03-09T08:47:36;4.07;;;2.13;;
76712;SDS011;65640;43.154;25.658;2023-03-09T08:50:02;3.28;;;2.55;;
76712;SDS011;65640;43.154;25.658;2023-03-09T08:52:28;2.55;;;1.40;;
76712;SDS011;65640;43.154;25.658;2023-03-09T08:54:59;6.05;;;2.20;;
76712;SDS011;65640;43.154;25.658;2023-03-09T08:57:28;1.63;;;1.52;;
76712;SDS011;65640;43.154;25.658;2023-03-09T08:59:55;2.75;;;1.42;;
76712;SDS011;65640;43.154;25.658;2023-03-09T09:02:20;2.25;;;0.90;;
76712;SDS011;65640;43.154;25.658;2023-03-09T09:04:46;2.70;;;0.82;;
76712;SDS011;65640;43.154;25.658;2023-03-09T09:07:12;2.22;;;1.00;;
76712;SDS011;65640;43.154;25.658;2023-03-09T09:09:39;3.10;;;0.90;;
76712;SDS011;65640;43.154;25.658;2023-03-09T09:12:06;3.83;;;1.00;;
76712;SDS011;65640;43.154;25.658;2023-03-09T09:14:33;1.83;;;1.20;;
76712;SDS011;65640;43.154;25.658;2023-03-09T09:16:59;2.58;;;0.98;;
76712;SDS011;65640;43.154;25.658;2023-03-09T09:19:25;1.17;;;1.05;;
76712;SDS011;65640;43.154;25.658;2023-03-09T09:21:51;1.33;;;1.23;;
76712;SDS011;65640;43.154;25.658;2023-03-09T09:24:18;2.38;;;1.13;;
76712;SDS011;65640;43.154;25.658;2023-03-09T09:26:44;2.05;;;1.05;;
76712;SDS011;65640;43.154;25.658;2023-03-09T09:29:09;1.20;;;0.80;;
76712;SDS011;65640;43.154;25.658;2023-03-09T09:31:35;0.80;;;0.60;;
76712;SDS011;65640;43.154;25.658;2023-03-09T09:34:01;1.80;;;0.80;;
76712;SDS011;65640;43.154;25.658;2023-03-09T09:36:26;2.75;;;0.80;;
76712;SDS011;65640;43.154;25.658;2023-03-09T09:38:52;1.55;;;0.90;;
76712;SDS011;65640;43.154;25.658;2023-03-09T09:41:26;2.60;;;1.20;;
76712;SDS011;65640;43.154;25.658;2023-03-09T09:44:00;2.38;;;1.00;;
76712;SDS011;65640;43.154;25.658;2023-03-09T09:46:29;3.75;;;1.00;;
76712;SDS011;65640;43.154;25.658;2023-03-09T09:48:56;1.73;;;0.82;;
76712;SDS011;65640;43.154;25.658;2023-03-09T09:51:31;1.70;;;1.00;;
76712;SDS011;65640;43.154;25.658;2023-03-09T09:57:13;3.63;;;1.15;;
76712;SDS011;65640;43.154;25.658;2023-03-09T10:05:17;0.45;;;0.38;;
76712;SDS011;65640;43.154;25.658;2023-03-09T10:10:23;1.75;;;1.05;;
76712;SDS011;65640;43.154;25.658;2023-03-09T10:12:52;0.50;;;0.50;;
76712;SDS011;65640;43.154;25.658;2023-03-09T10:17:53;2.00;;;0.70;;
76712;SDS011;65640;43.154;25.658;2023-03-09T10:20:24;1.95;;;0.40;;
76712;SDS011;65640;43.154;25.658;2023-03-09T10:22:55;1.90;;;1.40;;
76712;SDS011;65640;43.154;25.658;2023-03-09T10:25:22;1.67;;;1.27;;
76712;SDS011;65640;43.154;25.658;2023-03-09T10:38:30;1.23;;;0.70;;
76712;SDS011;65640;43.154;25.658;2023-03-09T10:40:58;0.85;;;0.80;;
76712;SDS011;65640;43.154;25.658;2023-03-09T10:43:31;0.80;;;0.60;;
76712;SDS011;65640;43.154;25.658;2023-03-09T10:48:41;0.60;;;0.60;;
76712;SDS011;65640;43.154;25.658;2023-03-09T10:51:20;0.60;;;0.60;;
76712;SDS011;65640;43.154;25.658;2023-03-09T10:53:50;0.50;;;0.40;;
76712;SDS011;65640;43.154;25.658;2023-03-09T11:01:34;0.85;;;0.60;;
76712;SDS011;65640;43.154;25.658;2023-03-09T11:04:24;0.60;;;0.40;;
76712;SDS011;65640;43.154;25.658;2023-03-09T11:07:01;0.82;;;0.50;;
76712;SDS011;65640;43.154;25.658;2023-03-09T11:12:21;0.70;;;0.70;;
76712;SDS011;65640;43.154;25.658;2023-03-09T11:22:47;0.98;;;0.77;;
76712;SDS011;65640;43.154;25.658;2023-03-09T11:25:28;0.50;;;0.50;;
76712;SDS011;65640;43.154;25.658;2023-03-09T11:30:44;0.50;;;0.50;;
76712;SDS011;65640;43.154;25.658;2023-03-09T11:33:13;0.50;;;0.50;;
76712;SDS011;65640;43.154;25.658;2023-03-09T11:35:41;0.85;;;0.80;;
76712;SDS011;65640;43.154;25.658;2023-03-09T11:38:10;1.05;;;0.95;;
76712;SDS011;65640;43.154;25.658;2023-03-09T11:40:37;1.40;;;0.50;;
76712;SDS011;65640;43.154;25.658;2023-03-09T11:43:16;2.30;;;0.40;;
76712;SDS011;65640;43.154;25.658;2023-03-09T11:45:46;0.77;;;0.65;;
76712;SDS011;65640;43.154;25.658;2023-03-09T11:51:00;0.82;;;0.60;;
76712;SDS011;65640;43.154;25.658;2023-03-09T11:56:25;0.82;;;0.50;;
76712;SDS011;65640;43.154;25.658;2023-03-09T11:58:56;1.80;;;0.65;;
76712;SDS011;65640;43.154;25.658;2023-03-09T12:01:52;1.80;;;0.60;;
76712;SDS011;65640;43.154;25.658;2023-03-09T12:04:19;0.55;;;0.55;;
76712;SDS011;65640;43.154;25.658;2023-03-09T12:06:53;0.50;;;0.50;;
76712;SDS011;65640;43.154;25.658;2023-03-09T12:09:27;0.40;;;0.40;;
76712;SDS011;65640;43.154;25.658;2023-03-09T12:14:42;0.70;;;0.50;;
76712;SDS011;65640;43.154;25.658;2023-03-09T12:17:15;0.50;;;0.50;;
76712;SDS011;65640;43.154;25.658;2023-03-09T12:19:50;1.75;;;0.68;;
76712;SDS011;65640;43.154;25.658;2023-03-09T12:22:39;2.47;;;0.90;;
76712;SDS011;65640;43.154;25.658;2023-03-09T12:25:04;2.28;;;0.70;;
76712;SDS011;65640;43.154;25.658;2023-03-09T12:27:33;0.88;;;0.82;;
76712;SDS011;65640;43.154;25.658;2023-03-09T12:34:51;1.33;;;0.80;;
76712;SDS011;65640;43.154;25.658;2023-03-09T12:40:17;0.60;;;0.60;;
76712;SDS011;65640;43.154;25.658;2023-03-09T12:42:50;1.95;;;0.60;;
76712;SDS011;65640;43.154;25.658;2023-03-09T12:47:59;1.52;;;0.82;;
76712;SDS011;65640;43.154;25.658;2023-03-09T12:50:33;0.60;;;0.60;;
76712;SDS011;65640;43.154;25.658;2023-03-09T13:03:23;0.88;;;0.80;;
76712;SDS011;65640;43.154;25.658;2023-03-09T13:05:54;3.20;;;0.60;;
76712;SDS011;65640;43.154;25.658;2023-03-09T13:13:49;2.45;;;2.35;;
76712;SDS011;65640;43.154;25.658;2023-03-09T13:24:54;17.40;;;11.80;;
76712;SDS011;65640;43.154;25.658;2023-03-09T13:29:30;0.85;;;0.60;;
76712;SDS011;65640;43.154;25.658;2023-03-09T13:31:57;5.97;;;5.00;;
76712;SDS011;65640;43.154;25.658;2023-03-09T13:34:31;3.22;;;0.70;;
76712;SDS011;65640;43.154;25.658;2023-03-09T13:37:00;2.85;;;0.50;;
76712;SDS011;65640;43.154;25.658;2023-03-09T13:39:29;2.85;;;0.57;;
76712;SDS011;65640;43.154;25.658;2023-03-09T13:41:55;6.60;;;3.72;;
76712;SDS011;65640;43.154;25.658;2023-03-09T13:44:23;4.43;;;2.58;;
76712;SDS011;65640;43.154;25.658;2023-03-09T13:46:51;4.75;;;2.92;;
76712;SDS011;65640;43.154;25.658;2023-03-09T13:49:27;1.23;;;1.13;;
76712;SDS011;65640;43.154;25.658;2023-03-09T13:51:58;1.40;;;1.05;;
76712;SDS011;65640;43.154;25.658;2023-03-09T13:54:30;4.78;;;2.65;;
76712;SDS011;65640;43.154;25.658;2023-03-09T13:59:27;2.15;;;1.73;;
76712;SDS011;65640;43.154;25.658;2023-03-09T14:02:02;4.75;;;1.33;;
76712;SDS011;65640;43.154;25.658;2023-03-09T14:04:28;28.63;;;16.25;;
76712;SDS011;65640;43.154;25.658;2023-03-09T14:06:54;3.05;;;2.85;;
76712;SDS011;65640;43.154;25.658;2023-03-09T14:11:51;7.15;;;6.55;;
76712;SDS011;65640;43.154;25.658;2023-03-09T14:14:18;3.00;;;0.93;;
76712;SDS011;65640;43.154;25.658;2023-03-09T14:16:45;1.88;;;1.08;;
76712;SDS011;65640;43.154;25.658;2023-03-09T14:19:18;2.75;;;1.10;;
76712;SDS011;65640;43.154;25.658;2023-03-09T14:21:52;7.10;;;0.82;;
76712;SDS011;65640;43.154;25.658;2023-03-09T14:24:23;1.63;;;0.80;;
76712;SDS011;65640;43.154;25.658;2023-03-09T14:26:49;0.90;;;0.90;;
76712;SDS011;65640;43.154;25.658;2023-03-09T14:31:41;1.27;;;0.90;;
76712;SDS011;65640;43.154;25.658;2023-03-09T14:36:46;1.10;;;1.00;;
76712;SDS011;65640;43.154;25.658;2023-03-09T14:39:32;2.33;;;1.40;;
76712;SDS011;65640;43.154;25.658;2023-03-09T14:44:32;1.25;;;1.02;;
76712;SDS011;65640;43.154;25.658;2023-03-09T14:46:59;2.88;;;1.00;;
76712;SDS011;65640;43.154;25.658;2023-03-09T14:49:24;3.75;;;1.13;;
76712;SDS011;65640;43.154;25.658;2023-03-09T14:51:50;1.83;;;0.82;;
76712;SDS011;65640;43.154;25.658;2023-03-09T14:54:15;0.80;;;0.80;;
76712;SDS011;65640;43.154;25.658;2023-03-09T14:56:44;0.90;;;0.90;;
76712;SDS011;65640;43.154;25.658;2023-03-09T15:01:44;1.90;;;0.90;;
76712;SDS011;65640;43.154;25.658;2023-03-09T15:04:13;3.45;;;1.42;;
76712;SDS011;65640;43.154;25.658;2023-03-09T15:06:41;1.50;;;1.00;;
76712;SDS011;65640;43.154;25.658;2023-03-09T15:09:07;2.08;;;1.30;;
76712;SDS011;65640;43.154;25.658;2023-03-09T15:11:34;1.30;;;1.00;;
76712;SDS011;65640;43.154;25.658;2023-03-09T15:14:00;0.70;;;0.70;;
76712;SDS011;65640;43.154;25.658;2023-03-09T15:16:32;2.75;;;0.82;;
76712;SDS011;65640;43.154;25.658;2023-03-09T15:18:57;1.08;;;0.90;;
76712;SDS011;65640;43.154;25.658;2023-03-09T15:21:22;1.67;;;0.80;;
76712;SDS011;65640;43.154;25.658;2023-03-09T15:23:48;21.92;;;13.13;;
76712;SDS011;65640;43.154;25.658;2023-03-09T15:26:13;27.52;;;16.40;;
76712;SDS011;65640;43.154;25.658;2023-03-09T15:28:39;23.70;;;13.27;;
76712;SDS011;65640;43.154;25.658;2023-03-09T15:31:08;7.35;;;0.80;;
76712;SDS011;65640;43.154;25.658;2023-03-09T15:33:36;2.45;;;2.10;;
76712;SDS011;65640;43.154;25.658;2023-03-09T15:36:03;2.47;;;2.28;;
76712;SDS011;65640;43.154;25.658;2023-03-09T15:38:33;35.75;;;16.50;;
76712;SDS011;65640;43.154;25.658;2023-03-09T15:40:59;47.83;;;28.17;;
76712;SDS011;65640;43.154;25.658;2023-03-09T15:43:24;25.73;;;14.18;;
76712;SDS011;65640;43.154;25.658;2023-03-09T15:45:50;23.42;;;17.70;;
76712;SDS011;65640;43.154;25.658;2023-03-09T15:48:15;17.67;;;10.93;;
76712;SDS011;65640;43.154;25.658;2023-03-09T15:50:47;20.35;;;9.18;;
76712;SDS011;65640;43.154;25.658;2023-03-09T15:53:14;13.70;;;7.20;;
76712;SDS011;65640;43.154;25.658;2023-03-09T15:55:39;14.13;;;5.43;;
76712;SDS011;65640;43.154;25.658;2023-03-09T15:58:07;5.93;;;2.30;;
76712;SDS011;65640;43.154;25.658;2023-03-09T16:00:32;5.00;;;2.40;;
76712;SDS011;65640;43.154;25.658;2023-03-09T16:03:01;7.03;;;1.70;;
76712;SDS011;65640;43.154;25.658;2023-03-09T16:05:28;7.45;;;1.20;;
76712;SDS011;65640;43.154;25.658;2023-03-09T16:07:54;9.48;;;3.20;;
76712;SDS011;65640;43.154;25.658;2023-03-09T16:10:19;9.73;;;2.00;;
76712;SDS011;65640;43.154;25.658;2023-03-09T16:12:45;10.00;;;2.40;;
76712;SDS011;65640;43.154;25.658;2023-03-09T16:17:36;28.88;;;8.35;;
76712;SDS011;65640;43.154;25.658;2023-03-09T16:20:02;22.67;;;11.02;;
76712;SDS011;65640;43.154;25.658;2023-03-09T16:22:28;30.42;;;12.98;;
76712;SDS011;65640;43.154;25.658;2023-03-09T16:24:54;17.05;;;10.20;;
76712;SDS011;65640;43.154;25.658;2023-03-09T16:27:19;21.27;;;11.00;;
76712;SDS011;65640;43.154;25.658;2023-03-09T16:29:45;24.85;;;12.20;;
76712;SDS011;65640;43.154;25.658;2023-03-09T16:32:11;29.60;;;15.95;;